sensor_id;sensor_type;location;lat;lon;timestamp;P1;durP1;ratioP1;P2;durP2;ratioP2
12151;SDS011;6139;51.274;7.128;2023-04-01T00:00:25;2.77;;;1.03;;
12151;SDS011;6139;51.274;7.128;2023-04-01T00:01:26;3.03;;;1.30;;
12151;SDS011;6139;51.274;7.128;2023-04-01T00:02:28;3.07;;;1.23;;
12151;SDS011;6139;51.274;7.128;2023-04-01T00:03:29;2.17;;;1.30;;
12151;SDS011;6139;51.274;7.128;2023-04-01T00:04:33;3.67;;;1.30;;
12151;SDS011;6139;51.274;7.128;2023-04-01T00:05:34;2.03;;;1.17;;
12151;SDS011;6139;51.274;7.128;2023-04-01T00:06:37;3.57;;;1.37;;
12151;SDS011;6139;51.274;7.128;2023-04-01T00:07:39;2.93;;;1.40;;
12151;SDS011;6139;51.274;7.128;2023-04-01T00:08:41;2.67;;;1.50;;
12151;SDS011;6139;51.274;7.128;2023-04-01T00:09:42;3.83;;;1.40;;
12151;SDS011;6139;51.274;7.128;2023-04-01T00:10:43;2.40;;;1.43;;
12151;SDS011;6139;51.274;7.128;2023-04-01T00:11:45;3.27;;;1.40;;
12151;SDS011;6139;51.274;7.128;2023-04-01T00:12:47;2.13;;;1.40;;
12151;SDS011;6139;51.274;7.128;2023-04-01T00:13:48;2.53;;;1.20;;
12151;SDS011;6139;51.274;7.128;2023-04-01T00:14:50;1.63;;;1.10;;
12151;SDS011;6139;51.274;7.128;2023-04-01T00:15:52;2.77;;;1.50;;
12151;SDS011;6139;51.274;7.128;2023-04-01T00:16:54;4.87;;;1.33;;
12151;SDS011;6139;51.274;7.128;2023-04-01T00:17:56;3.63;;;1.40;;
12151;SDS011;6139;51.274;7.128;2023-04-01T00:18:56;3.10;;;1.30;;
12151;SDS011;6139;51.274;7.128;2023-04-01T00:19:59;3.47;;;1.27;;
12151;SDS011;6139;51.274;7.128;2023-04-01T00:21:00;2.17;;;1.23;;
12151;SDS011;6139;51.274;7.128;2023-04-01T00:22:03;2.17;;;1.63;;
12151;SDS011;6139;51.274;7.128;2023-04-01T00:23:05;3.17;;;1.30;;
12151;SDS011;6139;51.274;7.128;2023-04-01T00:24:07;3.67;;;1.37;;
12151;SDS011;6139;51.274;7.128;2023-04-01T00:25:10;3.00;;;1.27;;
12151;SDS011;6139;51.274;7.128;2023-04-01T00:26:11;1.93;;;1.17;;
12151;SDS011;6139;51.274;7.128;2023-04-01T00:27:14;2.37;;;1.30;;
12151;SDS011;6139;51.274;7.128;2023-04-01T00:28:18;2.80;;;1.33;;
12151;SDS011;6139;51.274;7.128;2023-04-01T00:29:21;3.70;;;1.70;;
12151;SDS011;6139;51.274;7.128;2023-04-01T00:30:24;5.13;;;1.37;;
12151;SDS011;6139;51.274;7.128;2023-04-01T00:31:26;3.03;;;1.30;;
12151;SDS011;6139;51.274;7.128;2023-04-01T00:32:29;2.23;;;1.10;;
12151;SDS011;6139;51.274;7.128;2023-04-01T00:33:30;4.90;;;1.57;;
12151;SDS011;6139;51.274;7.128;2023-04-01T00:34:32;3.00;;;1.23;;
12151;SDS011;6139;51.274;7.128;2023-04-01T00:35:33;2.13;;;1.20;;
12151;SDS011;6139;51.274;7.128;2023-04-01T00:36:35;2.60;;;1.30;;
12151;SDS011;6139;51.274;7.128;2023-04-01T00:37:38;2.47;;;1.00;;
12151;SDS011;6139;51.274;7.128;2023-04-01T00:38:40;1.67;;;1.00;;
12151;SDS011;6139;51.274;7.128;2023-04-01T00:39:42;1.93;;;1.33;;
12151;SDS011;6139;51.274;7.128;2023-04-01T00:40:45;1.10;;;1.00;;
12151;SDS011;6139;51.274;7.128;2023-04-01T00:41:46;2.87;;;1.13;;
12151;SDS011;6139;51.274;7.128;2023-04-01T00:42:48;1.83;;;1.10;;
12151;SDS011;6139;51.274;7.128;2023-04-01T00:43:52;2.40;;;1.20;;
12151;SDS011;6139;51.274;7.128;2023-04-01T00:45:26;2.25;;;1.00;;
12151;SDS011;6139;51.274;7.128;2023-04-01T00:46:30;1.90;;;1.17;;
12151;SDS011;6139;51.274;7.128;2023-04-01T00:47:31;2.80;;;1.33;;
12151;SDS011;6139;51.274;7.128;2023-04-01T00:48:33;1.77;;;1.20;;
12151;SDS011;6139;51.274;7.128;2023-04-01T00:49:39;2.83;;;1.23;;
12151;SDS011;6139;51.274;7.128;2023-04-01T00:50:44;2.80;;;1.10;;
12151;SDS011;6139;51.274;7.128;2023-04-01T00:51:51;2.42;;;1.20;;
12151;SDS011;6139;51.274;7.128;2023-04-01T00:52:56;3.27;;;1.20;;
12151;SDS011;6139;51.274;7.128;2023-04-01T00:53:58;2.53;;;1.10;;
12151;SDS011;6139;51.274;7.128;2023-04-01T00:55:02;3.17;;;1.23;;
12151;SDS011;6139;51.274;7.128;2023-04-01T00:56:09;2.50;;;1.20;;
12151;SDS011;6139;51.274;7.128;2023-04-01T00:57:15;3.47;;;1.37;;
12151;SDS011;6139;51.274;7.128;2023-04-01T00:58:23;3.33;;;1.30;;
12151;SDS011;6139;51.274;7.128;2023-04-01T00:59:27;3.03;;;1.33;;
12151;SDS011;6139;51.274;7.128;2023-04-01T01:00:31;2.13;;;1.00;;
12151;SDS011;6139;51.274;7.128;2023-04-01T01:01:33;2.07;;;1.20;;
12151;SDS011;6139;51.274;7.128;2023-04-01T01:02:36;1.85;;;1.05;;
12151;SDS011;6139;51.274;7.128;2023-04-01T01:03:40;1.70;;;1.10;;
12151;SDS011;6139;51.274;7.128;2023-04-01T01:04:42;2.37;;;1.10;;
12151;SDS011;6139;51.274;7.128;2023-04-01T01:05:48;2.93;;;1.10;;
12151;SDS011;6139;51.274;7.128;2023-04-01T01:07:06;1.97;;;1.20;;
12151;SDS011;6139;51.274;7.128;2023-04-01T01:08:20;2.40;;;1.43;;
12151;SDS011;6139;51.274;7.128;2023-04-01T01:09:32;3.37;;;1.30;;
12151;SDS011;6139;51.274;7.128;2023-04-01T01:10:41;2.17;;;1.15;;
12151;SDS011;6139;51.274;7.128;2023-04-01T01:11:48;1.17;;;0.93;;
12151;SDS011;6139;51.274;7.128;2023-04-01T01:12:54;2.00;;;1.33;;
12151;SDS011;6139;51.274;7.128;2023-04-01T01:14:08;1.43;;;1.10;;
12151;SDS011;6139;51.274;7.128;2023-04-01T01:15:16;2.00;;;1.07;;
12151;SDS011;6139;51.274;7.128;2023-04-01T01:16:23;2.33;;;1.37;;
12151;SDS011;6139;51.274;7.128;2023-04-01T01:17:32;2.40;;;1.30;;
12151;SDS011;6139;51.274;7.128;2023-04-01T01:18:43;1.80;;;1.30;;
12151;SDS011;6139;51.274;7.128;2023-04-01T01:21:30;1.60;;;1.20;;
12151;SDS011;6139;51.274;7.128;2023-04-01T01:22:57;2.07;;;1.40;;
12151;SDS011;6139;51.274;7.128;2023-04-01T01:24:33;2.70;;;1.10;;
12151;SDS011;6139;51.274;7.128;2023-04-01T01:25:47;1.40;;;1.00;;
12151;SDS011;6139;51.274;7.128;2023-04-01T01:26:59;1.77;;;1.33;;
12151;SDS011;6139;51.274;7.128;2023-04-01T01:28:08;2.60;;;1.37;;
12151;SDS011;6139;51.274;7.128;2023-04-01T01:29:30;1.83;;;1.20;;
12151;SDS011;6139;51.274;7.128;2023-04-01T01:30:43;3.60;;;1.23;;
12151;SDS011;6139;51.274;7.128;2023-04-01T01:31:53;3.30;;;1.70;;
12151;SDS011;6139;51.274;7.128;2023-04-01T01:33:13;1.37;;;1.13;;
12151;SDS011;6139;51.274;7.128;2023-04-01T01:34:27;2.83;;;1.27;;
12151;SDS011;6139;51.274;7.128;2023-04-01T01:35:36;1.52;;;1.23;;
12151;SDS011;6139;51.274;7.128;2023-04-01T01:36:48;2.03;;;0.97;;
12151;SDS011;6139;51.274;7.128;2023-04-01T01:37:55;2.70;;;1.10;;
12151;SDS011;6139;51.274;7.128;2023-04-01T01:39:00;3.70;;;1.17;;
12151;SDS011;6139;51.274;7.128;2023-04-01T01:40:03;2.40;;;1.30;;
12151;SDS011;6139;51.274;7.128;2023-04-01T01:41:08;1.37;;;1.00;;
12151;SDS011;6139;51.274;7.128;2023-04-01T01:42:13;3.47;;;1.47;;
12151;SDS011;6139;51.274;7.128;2023-04-01T01:43:18;1.57;;;1.00;;
12151;SDS011;6139;51.274;7.128;2023-04-01T01:44:23;2.90;;;1.20;;
12151;SDS011;6139;51.274;7.128;2023-04-01T01:45:26;2.57;;;1.10;;
12151;SDS011;6139;51.274;7.128;2023-04-01T01:46:30;1.43;;;1.10;;
12151;SDS011;6139;51.274;7.128;2023-04-01T01:47:31;2.10;;;1.30;;
12151;SDS011;6139;51.274;7.128;2023-04-01T01:48:34;2.50;;;1.20;;
12151;SDS011;6139;51.274;7.128;2023-04-01T01:49:36;2.50;;;1.00;;
12151;SDS011;6139;51.274;7.128;2023-04-01T01:50:42;1.88;;;1.20;;
12151;SDS011;6139;51.274;7.128;2023-04-01T01:51:45;2.00;;;1.30;;
12151;SDS011;6139;51.274;7.128;2023-04-01T01:52:48;2.58;;;1.10;;
12151;SDS011;6139;51.274;7.128;2023-04-01T01:53:49;3.10;;;1.30;;
12151;SDS011;6139;51.274;7.128;2023-04-01T01:54:54;1.33;;;1.02;;
12151;SDS011;6139;51.274;7.128;2023-04-01T01:55:58;2.50;;;1.10;;
12151;SDS011;6139;51.274;7.128;2023-04-01T01:57:03;3.17;;;1.20;;
12151;SDS011;6139;51.274;7.128;2023-04-01T01:58:09;2.43;;;1.23;;
12151;SDS011;6139;51.274;7.128;2023-04-01T01:59:15;2.17;;;1.20;;
12151;SDS011;6139;51.274;7.128;2023-04-01T02:00:20;2.17;;;1.30;;
12151;SDS011;6139;51.274;7.128;2023-04-01T02:01:24;1.95;;;1.30;;
12151;SDS011;6139;51.274;7.128;2023-04-01T02:02:28;2.60;;;1.27;;
12151;SDS011;6139;51.274;7.128;2023-04-01T02:03:33;2.03;;;1.20;;
12151;SDS011;6139;51.274;7.128;2023-04-01T02:04:37;3.43;;;1.40;;
12151;SDS011;6139;51.274;7.128;2023-04-01T02:05:42;1.80;;;1.20;;
12151;SDS011;6139;51.274;7.128;2023-04-01T02:06:45;3.00;;;1.30;;
12151;SDS011;6139;51.274;7.128;2023-04-01T02:07:55;2.17;;;1.13;;
12151;SDS011;6139;51.274;7.128;2023-04-01T02:09:02;2.50;;;1.20;;
12151;SDS011;6139;51.274;7.128;2023-04-01T02:10:07;1.50;;;1.10;;
12151;SDS011;6139;51.274;7.128;2023-04-01T02:11:10;2.13;;;1.17;;
12151;SDS011;6139;51.274;7.128;2023-04-01T02:12:15;2.90;;;1.25;;
12151;SDS011;6139;51.274;7.128;2023-04-01T02:13:18;2.00;;;1.20;;
12151;SDS011;6139;51.274;7.128;2023-04-01T02:14:26;2.33;;;1.17;;
12151;SDS011;6139;51.274;7.128;2023-04-01T02:15:29;1.70;;;1.10;;
12151;SDS011;6139;51.274;7.128;2023-04-01T02:16:36;2.07;;;1.03;;
12151;SDS011;6139;51.274;7.128;2023-04-01T02:17:44;2.50;;;1.10;;
12151;SDS011;6139;51.274;7.128;2023-04-01T02:18:48;1.60;;;1.50;;
12151;SDS011;6139;51.274;7.128;2023-04-01T02:19:54;1.77;;;1.10;;
12151;SDS011;6139;51.274;7.128;2023-04-01T02:21:01;3.20;;;1.27;;
12151;SDS011;6139;51.274;7.128;2023-04-01T02:22:06;1.37;;;0.90;;
12151;SDS011;6139;51.274;7.128;2023-04-01T02:23:13;2.07;;;1.00;;
12151;SDS011;6139;51.274;7.128;2023-04-01T02:24:14;3.05;;;1.17;;
12151;SDS011;6139;51.274;7.128;2023-04-01T02:25:18;1.60;;;1.10;;
12151;SDS011;6139;51.274;7.128;2023-04-01T02:26:21;1.10;;;1.00;;
12151;SDS011;6139;51.274;7.128;2023-04-01T02:27:25;1.30;;;1.10;;
12151;SDS011;6139;51.274;7.128;2023-04-01T02:28:27;1.30;;;1.20;;
12151;SDS011;6139;51.274;7.128;2023-04-01T02:29:31;1.48;;;1.00;;
12151;SDS011;6139;51.274;7.128;2023-04-01T02:30:33;1.57;;;1.13;;
12151;SDS011;6139;51.274;7.128;2023-04-01T02:31:37;1.57;;;1.00;;
12151;SDS011;6139;51.274;7.128;2023-04-01T02:32:38;1.57;;;1.10;;
12151;SDS011;6139;51.274;7.128;2023-04-01T02:33:41;1.43;;;1.10;;
12151;SDS011;6139;51.274;7.128;2023-04-01T02:34:43;2.60;;;1.40;;
12151;SDS011;6139;51.274;7.128;2023-04-01T02:35:46;2.10;;;1.10;;
12151;SDS011;6139;51.274;7.128;2023-04-01T02:36:48;2.67;;;1.40;;
12151;SDS011;6139;51.274;7.128;2023-04-01T02:37:52;1.77;;;1.20;;
12151;SDS011;6139;51.274;7.128;2023-04-01T02:38:54;1.63;;;1.30;;
12151;SDS011;6139;51.274;7.128;2023-04-01T02:40:02;2.20;;;1.30;;
12151;SDS011;6139;51.274;7.128;2023-04-01T02:41:06;2.65;;;1.05;;
12151;SDS011;6139;51.274;7.128;2023-04-01T02:42:08;2.53;;;1.10;;
12151;SDS011;6139;51.274;7.128;2023-04-01T02:43:10;1.15;;;1.00;;
12151;SDS011;6139;51.274;7.128;2023-04-01T02:44:13;3.30;;;1.23;;
12151;SDS011;6139;51.274;7.128;2023-04-01T02:45:15;2.10;;;1.30;;
12151;SDS011;6139;51.274;7.128;2023-04-01T02:46:17;2.05;;;1.20;;
12151;SDS011;6139;51.274;7.128;2023-04-01T02:47:18;1.57;;;1.30;;
12151;SDS011;6139;51.274;7.128;2023-04-01T02:48:20;1.23;;;1.00;;
12151;SDS011;6139;51.274;7.128;2023-04-01T02:49:21;1.37;;;1.10;;
12151;SDS011;6139;51.274;7.128;2023-04-01T02:50:23;1.37;;;1.10;;
12151;SDS011;6139;51.274;7.128;2023-04-01T02:51:25;1.83;;;1.20;;
12151;SDS011;6139;51.274;7.128;2023-04-01T02:52:28;1.27;;;1.00;;
12151;SDS011;6139;51.274;7.128;2023-04-01T02:53:32;2.03;;;1.17;;
12151;SDS011;6139;51.274;7.128;2023-04-01T02:54:34;1.60;;;1.23;;
12151;SDS011;6139;51.274;7.128;2023-04-01T02:55:35;1.43;;;1.10;;
12151;SDS011;6139;51.274;7.128;2023-04-01T02:56:37;1.33;;;1.10;;
12151;SDS011;6139;51.274;7.128;2023-04-01T02:57:38;1.97;;;1.30;;
12151;SDS011;6139;51.274;7.128;2023-04-01T02:58:40;1.30;;;1.20;;
12151;SDS011;6139;51.274;7.128;2023-04-01T02:59:41;1.75;;;1.20;;
12151;SDS011;6139;51.274;7.128;2023-04-01T03:00:43;1.10;;;1.00;;
12151;SDS011;6139;51.274;7.128;2023-04-01T03:01:45;1.43;;;1.10;;
12151;SDS011;6139;51.274;7.128;2023-04-01T03:02:46;2.20;;;1.20;;
12151;SDS011;6139;51.274;7.128;2023-04-01T03:03:47;1.50;;;1.25;;
12151;SDS011;6139;51.274;7.128;2023-04-01T03:04:49;1.10;;;0.97;;
12151;SDS011;6139;51.274;7.128;2023-04-01T03:05:50;1.67;;;1.07;;
12151;SDS011;6139;51.274;7.128;2023-04-01T03:06:55;1.40;;;1.07;;
12151;SDS011;6139;51.274;7.128;2023-04-01T03:07:57;2.40;;;1.33;;
12151;SDS011;6139;51.274;7.128;2023-04-01T03:08:59;1.50;;;1.10;;
12151;SDS011;6139;51.274;7.128;2023-04-01T03:10:00;3.23;;;1.07;;
12151;SDS011;6139;51.274;7.128;2023-04-01T03:11:02;1.40;;;1.10;;
12151;SDS011;6139;51.274;7.128;2023-04-01T03:12:06;1.90;;;1.63;;
12151;SDS011;6139;51.274;7.128;2023-04-01T03:13:18;2.07;;;1.10;;
12151;SDS011;6139;51.274;7.128;2023-04-01T03:14:19;1.10;;;1.00;;
12151;SDS011;6139;51.274;7.128;2023-04-01T03:15:21;1.07;;;1.00;;
12151;SDS011;6139;51.274;7.128;2023-04-01T03:16:22;1.00;;;1.00;;
12151;SDS011;6139;51.274;7.128;2023-04-01T03:17:25;1.60;;;1.00;;
12151;SDS011;6139;51.274;7.128;2023-04-01T03:18:27;2.43;;;1.00;;
12151;SDS011;6139;51.274;7.128;2023-04-01T03:19:30;1.42;;;1.08;;
12151;SDS011;6139;51.274;7.128;2023-04-01T03:20:32;1.97;;;0.90;;
12151;SDS011;6139;51.274;7.128;2023-04-01T03:21:34;0.85;;;0.85;;
12151;SDS011;6139;51.274;7.128;2023-04-01T03:22:35;1.33;;;1.00;;
12151;SDS011;6139;51.274;7.128;2023-04-01T03:23:39;1.67;;;1.00;;
12151;SDS011;6139;51.274;7.128;2023-04-01T03:24:40;2.70;;;1.13;;
12151;SDS011;6139;51.274;7.128;2023-04-01T03:25:42;2.93;;;1.23;;
12151;SDS011;6139;51.274;7.128;2023-04-01T03:26:43;1.37;;;0.90;;
12151;SDS011;6139;51.274;7.128;2023-04-01T03:27:45;2.53;;;1.10;;
12151;SDS011;6139;51.274;7.128;2023-04-01T03:28:46;1.67;;;0.90;;
12151;SDS011;6139;51.274;7.128;2023-04-01T03:29:48;1.47;;;0.90;;
12151;SDS011;6139;51.274;7.128;2023-04-01T03:30:49;1.57;;;1.00;;
12151;SDS011;6139;51.274;7.128;2023-04-01T03:31:51;1.03;;;0.90;;
12151;SDS011;6139;51.274;7.128;2023-04-01T03:32:52;0.70;;;0.70;;
12151;SDS011;6139;51.274;7.128;2023-04-01T03:33:54;1.97;;;1.00;;
12151;SDS011;6139;51.274;7.128;2023-04-01T03:34:56;1.50;;;1.00;;
12151;SDS011;6139;51.274;7.128;2023-04-01T03:35:58;1.10;;;1.00;;
12151;SDS011;6139;51.274;7.128;2023-04-01T03:36:59;1.67;;;1.00;;
12151;SDS011;6139;51.274;7.128;2023-04-01T03:38:01;1.50;;;1.20;;
12151;SDS011;6139;51.274;7.128;2023-04-01T03:39:04;2.70;;;1.10;;
12151;SDS011;6139;51.274;7.128;2023-04-01T03:40:14;1.47;;;1.00;;
12151;SDS011;6139;51.274;7.128;2023-04-01T03:41:16;2.13;;;1.00;;
12151;SDS011;6139;51.274;7.128;2023-04-01T03:42:18;4.40;;;1.20;;
12151;SDS011;6139;51.274;7.128;2023-04-01T03:43:19;2.40;;;1.10;;
12151;SDS011;6139;51.274;7.128;2023-04-01T03:44:22;1.43;;;1.10;;
12151;SDS011;6139;51.274;7.128;2023-04-01T03:45:26;1.83;;;1.20;;
12151;SDS011;6139;51.274;7.128;2023-04-01T03:46:28;1.33;;;1.17;;
12151;SDS011;6139;51.274;7.128;2023-04-01T03:47:29;1.00;;;1.00;;
12151;SDS011;6139;51.274;7.128;2023-04-01T03:48:31;1.27;;;1.00;;
12151;SDS011;6139;51.274;7.128;2023-04-01T03:49:32;1.87;;;1.20;;
12151;SDS011;6139;51.274;7.128;2023-04-01T03:50:34;1.53;;;1.33;;
12151;SDS011;6139;51.274;7.128;2023-04-01T03:51:35;1.30;;;1.20;;
12151;SDS011;6139;51.274;7.128;2023-04-01T03:52:37;2.90;;;1.40;;
12151;SDS011;6139;51.274;7.128;2023-04-01T03:53:39;2.17;;;1.30;;
12151;SDS011;6139;51.274;7.128;2023-04-01T03:54:43;1.53;;;1.40;;
12151;SDS011;6139;51.274;7.128;2023-04-01T03:55:45;1.93;;;1.53;;
12151;SDS011;6139;51.274;7.128;2023-04-01T03:56:47;2.30;;;1.47;;
12151;SDS011;6139;51.274;7.128;2023-04-01T03:57:49;1.80;;;1.23;;
12151;SDS011;6139;51.274;7.128;2023-04-01T03:58:52;2.03;;;1.40;;
12151;SDS011;6139;51.274;7.128;2023-04-01T03:59:54;1.83;;;1.57;;
12151;SDS011;6139;51.274;7.128;2023-04-01T04:00:55;3.00;;;1.70;;
12151;SDS011;6139;51.274;7.128;2023-04-01T04:01:57;2.90;;;1.70;;
12151;SDS011;6139;51.274;7.128;2023-04-01T04:02:58;3.65;;;1.70;;
12151;SDS011;6139;51.274;7.128;2023-04-01T04:04:05;1.93;;;1.63;;
12151;SDS011;6139;51.274;7.128;2023-04-01T04:05:06;2.43;;;1.70;;
12151;SDS011;6139;51.274;7.128;2023-04-01T04:06:10;2.40;;;1.90;;
12151;SDS011;6139;51.274;7.128;2023-04-01T04:07:12;3.40;;;1.60;;
12151;SDS011;6139;51.274;7.128;2023-04-01T04:08:41;2.00;;;1.80;;
12151;SDS011;6139;51.274;7.128;2023-04-01T04:09:43;3.00;;;2.10;;
12151;SDS011;6139;51.274;7.128;2023-04-01T04:10:45;2.23;;;1.90;;
12151;SDS011;6139;51.274;7.128;2023-04-01T04:11:46;2.15;;;1.95;;
12151;SDS011;6139;51.274;7.128;2023-04-01T04:12:49;2.83;;;2.40;;
12151;SDS011;6139;51.274;7.128;2023-04-01T04:13:50;2.43;;;2.13;;
12151;SDS011;6139;51.274;7.128;2023-04-01T04:14:53;2.63;;;2.37;;
12151;SDS011;6139;51.274;7.128;2023-04-01T04:15:54;2.73;;;2.20;;
12151;SDS011;6139;51.274;7.128;2023-04-01T04:16:56;2.23;;;2.03;;
12151;SDS011;6139;51.274;7.128;2023-04-01T04:17:57;1.90;;;1.80;;
12151;SDS011;6139;51.274;7.128;2023-04-01T04:18:59;2.23;;;2.03;;
12151;SDS011;6139;51.274;7.128;2023-04-01T04:20:00;2.30;;;2.10;;
12151;SDS011;6139;51.274;7.128;2023-04-01T04:21:02;2.27;;;2.07;;
12151;SDS011;6139;51.274;7.128;2023-04-01T04:22:03;2.23;;;2.03;;
12151;SDS011;6139;51.274;7.128;2023-04-01T04:23:05;2.60;;;1.80;;
12151;SDS011;6139;51.274;7.128;2023-04-01T04:24:06;2.10;;;1.97;;
12151;SDS011;6139;51.274;7.128;2023-04-01T04:25:28;2.30;;;2.10;;
12151;SDS011;6139;51.274;7.128;2023-04-01T04:26:30;2.30;;;1.90;;
12151;SDS011;6139;51.274;7.128;2023-04-01T04:27:34;4.67;;;2.10;;
12151;SDS011;6139;51.274;7.128;2023-04-01T04:28:41;1.83;;;1.70;;
12151;SDS011;6139;51.274;7.128;2023-04-01T04:29:43;2.13;;;1.92;;
12151;SDS011;6139;51.274;7.128;2023-04-01T04:30:44;3.40;;;2.27;;
12151;SDS011;6139;51.274;7.128;2023-04-01T04:31:46;2.90;;;2.60;;
12151;SDS011;6139;51.274;7.128;2023-04-01T04:32:47;3.03;;;2.40;;
12151;SDS011;6139;51.274;7.128;2023-04-01T04:33:49;2.50;;;2.20;;
12151;SDS011;6139;51.274;7.128;2023-04-01T04:34:51;4.07;;;2.40;;
12151;SDS011;6139;51.274;7.128;2023-04-01T04:35:54;2.50;;;2.30;;
12151;SDS011;6139;51.274;7.128;2023-04-01T04:36:57;2.80;;;2.43;;
12151;SDS011;6139;51.274;7.128;2023-04-01T04:38:03;3.47;;;2.37;;
12151;SDS011;6139;51.274;7.128;2023-04-01T04:39:06;3.50;;;2.60;;
12151;SDS011;6139;51.274;7.128;2023-04-01T04:40:11;2.73;;;2.47;;
12151;SDS011;6139;51.274;7.128;2023-04-01T04:41:13;2.13;;;2.03;;
12151;SDS011;6139;51.274;7.128;2023-04-01T04:42:20;3.63;;;2.33;;
12151;SDS011;6139;51.274;7.128;2023-04-01T04:43:22;2.60;;;2.40;;
12151;SDS011;6139;51.274;7.128;2023-04-01T04:44:25;2.90;;;2.40;;
12151;SDS011;6139;51.274;7.128;2023-04-01T04:45:26;3.27;;;2.23;;
12151;SDS011;6139;51.274;7.128;2023-04-01T04:46:30;2.37;;;2.00;;
12151;SDS011;6139;51.274;7.128;2023-04-01T04:47:42;2.80;;;2.30;;
12151;SDS011;6139;51.274;7.128;2023-04-01T04:48:43;2.53;;;2.23;;
12151;SDS011;6139;51.274;7.128;2023-04-01T04:49:45;3.17;;;2.30;;
12151;SDS011;6139;51.274;7.128;2023-04-01T04:50:47;2.00;;;1.90;;
12151;SDS011;6139;51.274;7.128;2023-04-01T04:51:51;2.30;;;2.10;;
12151;SDS011;6139;51.274;7.128;2023-04-01T04:52:55;2.00;;;1.90;;
12151;SDS011;6139;51.274;7.128;2023-04-01T04:53:57;1.90;;;1.80;;
12151;SDS011;6139;51.274;7.128;2023-04-01T04:55:10;2.10;;;2.00;;
12151;SDS011;6139;51.274;7.128;2023-04-01T04:56:17;2.23;;;2.03;;
12151;SDS011;6139;51.274;7.128;2023-04-01T04:57:25;2.10;;;1.90;;
12151;SDS011;6139;51.274;7.128;2023-04-01T04:58:29;2.20;;;1.90;;
12151;SDS011;6139;51.274;7.128;2023-04-01T04:59:30;3.60;;;2.20;;
12151;SDS011;6139;51.274;7.128;2023-04-01T05:00:51;2.10;;;2.00;;
12151;SDS011;6139;51.274;7.128;2023-04-01T05:01:57;2.50;;;2.00;;
12151;SDS011;6139;51.274;7.128;2023-04-01T05:02:59;2.07;;;1.87;;
12151;SDS011;6139;51.274;7.128;2023-04-01T05:04:00;2.60;;;2.00;;
12151;SDS011;6139;51.274;7.128;2023-04-01T05:05:03;2.00;;;1.90;;
12151;SDS011;6139;51.274;7.128;2023-04-01T05:06:05;2.33;;;2.13;;
12151;SDS011;6139;51.274;7.128;2023-04-01T05:07:07;2.23;;;1.93;;
12151;SDS011;6139;51.274;7.128;2023-04-01T05:08:08;1.80;;;1.70;;
12151;SDS011;6139;51.274;7.128;2023-04-01T05:09:10;1.87;;;1.77;;
12151;SDS011;6139;51.274;7.128;2023-04-01T05:10:11;1.90;;;1.80;;
12151;SDS011;6139;51.274;7.128;2023-04-01T05:11:16;1.88;;;1.73;;
12151;SDS011;6139;51.274;7.128;2023-04-01T05:12:18;2.20;;;2.00;;
12151;SDS011;6139;51.274;7.128;2023-04-01T05:13:31;3.53;;;1.90;;
12151;SDS011;6139;51.274;7.128;2023-04-01T05:14:32;3.17;;;1.83;;
12151;SDS011;6139;51.274;7.128;2023-04-01T05:15:41;3.27;;;2.00;;
12151;SDS011;6139;51.274;7.128;2023-04-01T05:16:42;2.00;;;1.77;;
12151;SDS011;6139;51.274;7.128;2023-04-01T05:17:44;2.03;;;1.83;;
12151;SDS011;6139;51.274;7.128;2023-04-01T05:18:45;2.00;;;1.80;;
12151;SDS011;6139;51.274;7.128;2023-04-01T05:19:47;3.53;;;2.10;;
12151;SDS011;6139;51.274;7.128;2023-04-01T05:20:49;2.40;;;1.90;;
12151;SDS011;6139;51.274;7.128;2023-04-01T05:21:52;3.10;;;1.90;;
12151;SDS011;6139;51.274;7.128;2023-04-01T05:22:55;2.00;;;1.90;;
12151;SDS011;6139;51.274;7.128;2023-04-01T05:23:57;2.10;;;1.90;;
12151;SDS011;6139;51.274;7.128;2023-04-01T05:24:59;2.77;;;2.07;;
12151;SDS011;6139;51.274;7.128;2023-04-01T05:26:03;2.40;;;2.20;;
12151;SDS011;6139;51.274;7.128;2023-04-01T05:27:07;1.98;;;1.80;;
12151;SDS011;6139;51.274;7.128;2023-04-01T05:28:14;3.30;;;2.30;;
12151;SDS011;6139;51.274;7.128;2023-04-01T05:29:16;2.10;;;1.90;;
12151;SDS011;6139;51.274;7.128;2023-04-01T05:30:21;2.30;;;2.07;;
12151;SDS011;6139;51.274;7.128;2023-04-01T05:31:34;3.40;;;2.15;;
12151;SDS011;6139;51.274;7.128;2023-04-01T05:32:37;1.90;;;1.80;;
12151;SDS011;6139;51.274;7.128;2023-04-01T05:33:38;2.45;;;2.25;;
12151;SDS011;6139;51.274;7.128;2023-04-01T05:34:40;2.20;;;2.00;;
12151;SDS011;6139;51.274;7.128;2023-04-01T05:35:42;2.40;;;2.20;;
12151;SDS011;6139;51.274;7.128;2023-04-01T05:36:44;2.45;;;2.25;;
12151;SDS011;6139;51.274;7.128;2023-04-01T05:37:45;2.57;;;2.37;;
12151;SDS011;6139;51.274;7.128;2023-04-01T05:38:47;2.67;;;2.47;;
12151;SDS011;6139;51.274;7.128;2023-04-01T05:39:51;2.77;;;2.20;;
12151;SDS011;6139;51.274;7.128;2023-04-01T05:40:58;2.43;;;2.20;;
12151;SDS011;6139;51.274;7.128;2023-04-01T05:41:59;2.53;;;2.33;;
12151;SDS011;6139;51.274;7.128;2023-04-01T05:43:02;1.92;;;1.83;;
12151;SDS011;6139;51.274;7.128;2023-04-01T05:44:04;2.30;;;2.10;;
12151;SDS011;6139;51.274;7.128;2023-04-01T05:45:15;2.33;;;2.13;;
12151;SDS011;6139;51.274;7.128;2023-04-01T05:46:28;2.70;;;2.25;;
12151;SDS011;6139;51.274;7.128;2023-04-01T05:47:51;2.00;;;1.90;;
12151;SDS011;6139;51.274;7.128;2023-04-01T05:48:52;2.43;;;2.10;;
12151;SDS011;6139;51.274;7.128;2023-04-01T05:49:54;1.90;;;1.80;;
12151;SDS011;6139;51.274;7.128;2023-04-01T05:50:55;2.00;;;1.80;;
12151;SDS011;6139;51.274;7.128;2023-04-01T05:51:57;1.97;;;1.80;;
12151;SDS011;6139;51.274;7.128;2023-04-01T05:52:59;2.10;;;1.85;;
12151;SDS011;6139;51.274;7.128;2023-04-01T05:54:01;1.80;;;1.70;;
12151;SDS011;6139;51.274;7.128;2023-04-01T05:55:02;1.67;;;1.57;;
12151;SDS011;6139;51.274;7.128;2023-04-01T05:56:05;2.03;;;1.77;;
12151;SDS011;6139;51.274;7.128;2023-04-01T05:57:11;2.00;;;1.90;;
12151;SDS011;6139;51.274;7.128;2023-04-01T05:58:14;1.80;;;1.70;;
12151;SDS011;6139;51.274;7.128;2023-04-01T05:59:18;1.97;;;1.87;;
12151;SDS011;6139;51.274;7.128;2023-04-01T06:00:20;2.42;;;1.80;;
12151;SDS011;6139;51.274;7.128;2023-04-01T06:01:21;2.50;;;1.92;;
12151;SDS011;6139;51.274;7.128;2023-04-01T06:02:23;3.20;;;2.00;;
12151;SDS011;6139;51.274;7.128;2023-04-01T06:03:24;1.70;;;1.60;;
12151;SDS011;6139;51.274;7.128;2023-04-01T06:04:26;1.83;;;1.73;;
12151;SDS011;6139;51.274;7.128;2023-04-01T06:05:36;1.73;;;1.50;;
12151;SDS011;6139;51.274;7.128;2023-04-01T06:06:39;2.22;;;1.92;;
12151;SDS011;6139;51.274;7.128;2023-04-01T06:07:44;1.90;;;1.80;;
12151;SDS011;6139;51.274;7.128;2023-04-01T06:08:45;2.20;;;2.00;;
12151;SDS011;6139;51.274;7.128;2023-04-01T06:09:47;1.80;;;1.70;;
12151;SDS011;6139;51.274;7.128;2023-04-01T06:10:52;2.23;;;1.80;;
12151;SDS011;6139;51.274;7.128;2023-04-01T06:12:08;2.00;;;1.90;;
12151;SDS011;6139;51.274;7.128;2023-04-01T06:13:37;1.87;;;1.77;;
12151;SDS011;6139;51.274;7.128;2023-04-01T06:14:47;1.90;;;1.80;;
12151;SDS011;6139;51.274;7.128;2023-04-01T06:15:52;2.63;;;1.80;;
12151;SDS011;6139;51.274;7.128;2023-04-01T06:17:04;1.80;;;1.70;;
12151;SDS011;6139;51.274;7.128;2023-04-01T06:20:03;1.70;;;1.60;;
12151;SDS011;6139;51.274;7.128;2023-04-01T06:21:22;1.97;;;1.77;;
12151;SDS011;6139;51.274;7.128;2023-04-01T06:22:43;1.58;;;1.45;;
12151;SDS011;6139;51.274;7.128;2023-04-01T06:24:16;2.05;;;1.50;;
12151;SDS011;6139;51.274;7.128;2023-04-01T06:25:53;2.17;;;1.80;;
12151;SDS011;6139;51.274;7.128;2023-04-01T06:27:07;1.80;;;1.70;;
12151;SDS011;6139;51.274;7.128;2023-04-01T06:28:33;1.90;;;1.80;;
12151;SDS011;6139;51.274;7.128;2023-04-01T06:29:56;2.10;;;2.00;;
12151;SDS011;6139;51.274;7.128;2023-04-01T06:31:03;1.77;;;1.67;;
12151;SDS011;6139;51.274;7.128;2023-04-01T06:32:22;2.70;;;1.93;;
12151;SDS011;6139;51.274;7.128;2023-04-01T06:33:48;1.60;;;1.50;;
12151;SDS011;6139;51.274;7.128;2023-04-01T06:35:11;2.00;;;1.60;;
12151;SDS011;6139;51.274;7.128;2023-04-01T06:36:34;2.10;;;1.90;;
12151;SDS011;6139;51.274;7.128;2023-04-01T06:37:53;1.80;;;1.70;;
12151;SDS011;6139;51.274;7.128;2023-04-01T06:39:22;2.53;;;1.90;;
12151;SDS011;6139;51.274;7.128;2023-04-01T06:40:47;1.97;;;1.77;;